sensor_id;sensor_type;location;lat;lon;timestamp;P1;durP1;ratioP1;P2;durP2;ratioP2
79670;SDS011;69137;50.878;8.050;2023-04-26T00:01:40;11.65;;;3.88;;
79670;SDS011;69137;50.878;8.050;2023-04-26T00:04:06;10.82;;;3.35;;
79670;SDS011;69137;50.878;8.050;2023-04-26T00:06:32;5.78;;;3.40;;
79670;SDS011;69137;50.878;8.050;2023-04-26T00:08:59;5.75;;;3.35;;
79670;SDS011;69137;50.878;8.050;2023-04-26T00:11:24;6.00;;;3.13;;
79670;SDS011;69137;50.878;8.050;2023-04-26T00:13:50;7.35;;;3.55;;
79670;SDS011;69137;50.878;8.050;2023-04-26T00:16:16;7.90;;;3.78;;
79670;SDS011;69137;50.878;8.050;2023-04-26T00:18:42;7.00;;;3.80;;
79670;SDS011;69137;50.878;8.050;2023-04-26T00:21:10;7.30;;;3.70;;
79670;SDS011;69137;50.878;8.050;2023-04-26T00:23:36;6.72;;;3.03;;
79670;SDS011;69137;50.878;8.050;2023-04-26T00:26:01;7.90;;;3.45;;
79670;SDS011;69137;50.878;8.050;2023-04-26T00:28:27;4.97;;;3.38;;
79670;SDS011;69137;50.878;8.050;2023-04-26T00:30:53;8.57;;;4.10;;
79670;SDS011;69137;50.878;8.050;2023-04-26T00:33:21;9.68;;;4.25;;
79670;SDS011;69137;50.878;8.050;2023-04-26T00:38:15;6.17;;;3.67;;
79670;SDS011;69137;50.878;8.050;2023-04-26T00:40:40;7.80;;;3.97;;
79670;SDS011;69137;50.878;8.050;2023-04-26T00:43:06;9.15;;;4.15;;
79670;SDS011;69137;50.878;8.050;2023-04-26T00:45:31;11.57;;;3.83;;
79670;SDS011;69137;50.878;8.050;2023-04-26T00:47:58;6.88;;;3.50;;
79670;SDS011;69137;50.878;8.050;2023-04-26T00:50:26;6.72;;;3.22;;
79670;SDS011;69137;50.878;8.050;2023-04-26T00:52:51;7.10;;;3.53;;
79670;SDS011;69137;50.878;8.050;2023-04-26T00:55:17;10.95;;;3.70;;
79670;SDS011;69137;50.878;8.050;2023-04-26T00:57:45;13.00;;;4.88;;
79670;SDS011;69137;50.878;8.050;2023-04-26T01:00:11;6.35;;;3.70;;
79670;SDS011;69137;50.878;8.050;2023-04-26T01:02:36;9.93;;;3.85;;
79670;SDS011;69137;50.878;8.050;2023-04-26T01:05:02;8.07;;;3.28;;
79670;SDS011;69137;50.878;8.050;2023-04-26T01:07:29;7.55;;;3.90;;
79670;SDS011;69137;50.878;8.050;2023-04-26T01:09:55;8.00;;;3.95;;
79670;SDS011;69137;50.878;8.050;2023-04-26T01:12:22;7.00;;;3.70;;
79670;SDS011;69137;50.878;8.050;2023-04-26T01:14:48;7.65;;;3.20;;
79670;SDS011;69137;50.878;8.050;2023-04-26T01:17:14;13.60;;;4.22;;
79670;SDS011;69137;50.878;8.050;2023-04-26T01:19:48;8.20;;;4.53;;
79670;SDS011;69137;50.878;8.050;2023-04-26T01:22:15;9.75;;;4.18;;
79670;SDS011;69137;50.878;8.050;2023-04-26T01:24:43;7.63;;;3.35;;
79670;SDS011;69137;50.878;8.050;2023-04-26T01:27:12;11.15;;;3.33;;
79670;SDS011;69137;50.878;8.050;2023-04-26T01:29:37;6.25;;;3.17;;
79670;SDS011;69137;50.878;8.050;2023-04-26T01:32:03;9.73;;;3.65;;
79670;SDS011;69137;50.878;8.050;2023-04-26T01:34:28;5.53;;;2.80;;
79670;SDS011;69137;50.878;8.050;2023-04-26T01:36:54;4.57;;;2.72;;
79670;SDS011;69137;50.878;8.050;2023-04-26T01:39:19;8.77;;;2.97;;
79670;SDS011;69137;50.878;8.050;2023-04-26T01:41:45;9.18;;;3.38;;
79670;SDS011;69137;50.878;8.050;2023-04-26T01:44:10;7.13;;;3.35;;
79670;SDS011;69137;50.878;8.050;2023-04-26T01:46:36;6.90;;;2.85;;
79670;SDS011;69137;50.878;8.050;2023-04-26T01:49:01;7.53;;;3.33;;
79670;SDS011;69137;50.878;8.050;2023-04-26T01:51:27;6.75;;;3.10;;
79670;SDS011;69137;50.878;8.050;2023-04-26T01:53:52;7.43;;;3.03;;
79670;SDS011;69137;50.878;8.050;2023-04-26T01:56:18;6.40;;;3.20;;
79670;SDS011;69137;50.878;8.050;2023-04-26T01:58:44;3.97;;;3.08;;
79670;SDS011;69137;50.878;8.050;2023-04-26T02:01:09;4.82;;;3.15;;
79670;SDS011;69137;50.878;8.050;2023-04-26T02:03:35;8.75;;;3.15;;
79670;SDS011;69137;50.878;8.050;2023-04-26T02:06:01;8.18;;;3.45;;
79670;SDS011;69137;50.878;8.050;2023-04-26T02:08:26;10.88;;;3.90;;
79670;SDS011;69137;50.878;8.050;2023-04-26T02:10:52;5.20;;;3.08;;
79670;SDS011;69137;50.878;8.050;2023-04-26T02:13:18;8.30;;;4.03;;
79670;SDS011;69137;50.878;8.050;2023-04-26T02:15:46;6.72;;;3.60;;
79670;SDS011;69137;50.878;8.050;2023-04-26T02:18:13;8.65;;;4.22;;
79670;SDS011;69137;50.878;8.050;2023-04-26T02:20:39;9.77;;;3.22;;
79670;SDS011;69137;50.878;8.050;2023-04-26T02:23:07;7.70;;;3.53;;
79670;SDS011;69137;50.878;8.050;2023-04-26T02:25:33;7.53;;;3.40;;
79670;SDS011;69137;50.878;8.050;2023-04-26T02:27:58;5.10;;;3.45;;
79670;SDS011;69137;50.878;8.050;2023-04-26T02:30:24;8.05;;;3.75;;
79670;SDS011;69137;50.878;8.050;2023-04-26T02:32:49;8.27;;;3.15;;
79670;SDS011;69137;50.878;8.050;2023-04-26T02:35:17;8.30;;;3.63;;
79670;SDS011;69137;50.878;8.050;2023-04-26T02:37:43;5.40;;;2.95;;
79670;SDS011;69137;50.878;8.050;2023-04-26T02:40:12;5.78;;;3.25;;
79670;SDS011;69137;50.878;8.050;2023-04-26T02:42:38;7.10;;;3.35;;
79670;SDS011;69137;50.878;8.050;2023-04-26T02:45:04;5.05;;;2.65;;
79670;SDS011;69137;50.878;8.050;2023-04-26T02:47:31;9.75;;;3.63;;
79670;SDS011;69137;50.878;8.050;2023-04-26T02:49:56;3.75;;;2.60;;
79670;SDS011;69137;50.878;8.050;2023-04-26T02:52:22;4.60;;;3.25;;
79670;SDS011;69137;50.878;8.050;2023-04-26T02:54:47;6.22;;;3.15;;
79670;SDS011;69137;50.878;8.050;2023-04-26T02:57:13;6.50;;;3.28;;
79670;SDS011;69137;50.878;8.050;2023-04-26T02:59:38;6.93;;;3.33;;
79670;SDS011;69137;50.878;8.050;2023-04-26T03:02:04;6.93;;;4.00;;
79670;SDS011;69137;50.878;8.050;2023-04-26T03:04:31;8.90;;;3.60;;
79670;SDS011;69137;50.878;8.050;2023-04-26T03:06:58;6.35;;;3.42;;
79670;SDS011;69137;50.878;8.050;2023-04-26T03:09:23;9.55;;;3.90;;
79670;SDS011;69137;50.878;8.050;2023-04-26T03:11:49;6.20;;;3.55;;
79670;SDS011;69137;50.878;8.050;2023-04-26T03:14:14;5.57;;;3.65;;
79670;SDS011;69137;50.878;8.050;2023-04-26T03:16:40;8.25;;;4.00;;
79670;SDS011;69137;50.878;8.050;2023-04-26T03:19:07;6.28;;;3.60;;
79670;SDS011;69137;50.878;8.050;2023-04-26T03:21:32;6.47;;;4.00;;
79670;SDS011;69137;50.878;8.050;2023-04-26T03:23:57;6.88;;;3.67;;
79670;SDS011;69137;50.878;8.050;2023-04-26T03:26:23;11.13;;;3.75;;
79670;SDS011;69137;50.878;8.050;2023-04-26T03:28:48;7.80;;;2.97;;
79670;SDS011;69137;50.878;8.050;2023-04-26T03:31:14;4.80;;;3.00;;
79670;SDS011;69137;50.878;8.050;2023-04-26T03:33:39;11.38;;;3.47;;
79670;SDS011;69137;50.878;8.050;2023-04-26T03:36:05;6.80;;;3.67;;
79670;SDS011;69137;50.878;8.050;2023-04-26T03:38:31;11.90;;;3.67;;
79670;SDS011;69137;50.878;8.050;2023-04-26T03:40:56;7.20;;;3.45;;
79670;SDS011;69137;50.878;8.050;2023-04-26T03:43:21;5.63;;;3.45;;
79670;SDS011;69137;50.878;8.050;2023-04-26T03:45:48;5.40;;;3.25;;
79670;SDS011;69137;50.878;8.050;2023-04-26T03:48:14;5.43;;;3.25;;
79670;SDS011;69137;50.878;8.050;2023-04-26T03:50:40;7.15;;;3.20;;
79670;SDS011;69137;50.878;8.050;2023-04-26T03:53:06;6.82;;;3.33;;
79670;SDS011;69137;50.878;8.050;2023-04-26T03:55:31;5.30;;;3.10;;
79670;SDS011;69137;50.878;8.050;2023-04-26T03:57:57;7.53;;;3.78;;
79670;SDS011;69137;50.878;8.050;2023-04-26T04:00:22;6.68;;;3.08;;
79670;SDS011;69137;50.878;8.050;2023-04-26T04:02:48;6.00;;;3.03;;
79670;SDS011;69137;50.878;8.050;2023-04-26T04:05:13;9.82;;;3.15;;
79670;SDS011;69137;50.878;8.050;2023-04-26T04:07:39;6.43;;;3.47;;
79670;SDS011;69137;50.878;8.050;2023-04-26T04:10:05;6.40;;;3.35;;
79670;SDS011;69137;50.878;8.050;2023-04-26T04:12:31;6.43;;;3.78;;
79670;SDS011;69137;50.878;8.050;2023-04-26T04:14:56;5.57;;;3.58;;
79670;SDS011;69137;50.878;8.050;2023-04-26T04:17:22;7.93;;;3.50;;
79670;SDS011;69137;50.878;8.050;2023-04-26T04:19:47;6.15;;;3.03;;
79670;SDS011;69137;50.878;8.050;2023-04-26T04:22:13;9.00;;;3.78;;
79670;SDS011;69137;50.878;8.050;2023-04-26T04:24:38;4.72;;;3.15;;
79670;SDS011;69137;50.878;8.050;2023-04-26T04:27:06;7.97;;;3.28;;
79670;SDS011;69137;50.878;8.050;2023-04-26T04:29:31;11.23;;;3.53;;
79670;SDS011;69137;50.878;8.050;2023-04-26T04:31:57;8.13;;;3.60;;
79670;SDS011;69137;50.878;8.050;2023-04-26T04:34:23;6.00;;;2.83;;
79670;SDS011;69137;50.878;8.050;2023-04-26T04:36:48;5.95;;;3.63;;
79670;SDS011;69137;50.878;8.050;2023-04-26T04:39:17;5.35;;;3.78;;
79670;SDS011;69137;50.878;8.050;2023-04-26T04:41:43;5.38;;;3.08;;
79670;SDS011;69137;50.878;8.050;2023-04-26T04:44:12;5.57;;;2.83;;
79670;SDS011;69137;50.878;8.050;2023-04-26T04:46:39;8.77;;;4.00;;
79670;SDS011;69137;50.878;8.050;2023-04-26T04:49:05;8.38;;;3.58;;
79670;SDS011;69137;50.878;8.050;2023-04-26T04:51:34;8.35;;;3.33;;
79670;SDS011;69137;50.878;8.050;2023-04-26T04:54:21;4.15;;;3.20;;
79670;SDS011;69137;50.878;8.050;2023-04-26T04:56:45;6.43;;;3.45;;
79670;SDS011;69137;50.878;8.050;2023-04-26T04:59:11;5.53;;;3.10;;
79670;SDS011;69137;50.878;8.050;2023-04-26T05:01:36;6.88;;;3.38;;
79670;SDS011;69137;50.878;8.050;2023-04-26T05:04:02;9.15;;;3.72;;
79670;SDS011;69137;50.878;8.050;2023-04-26T05:06:29;11.52;;;3.88;;
79670;SDS011;69137;50.878;8.050;2023-04-26T05:08:57;6.70;;;3.85;;
79670;SDS011;69137;50.878;8.050;2023-04-26T05:11:23;6.03;;;3.53;;
79670;SDS011;69137;50.878;8.050;2023-04-26T05:13:49;9.05;;;4.25;;
79670;SDS011;69137;50.878;8.050;2023-04-26T05:16:14;5.07;;;3.53;;
79670;SDS011;69137;50.878;8.050;2023-04-26T05:18:41;6.18;;;3.65;;
79670;SDS011;69137;50.878;8.050;2023-04-26T05:21:07;15.02;;;3.67;;
79670;SDS011;69137;50.878;8.050;2023-04-26T05:23:32;7.68;;;4.03;;
79670;SDS011;69137;50.878;8.050;2023-04-26T05:26:04;5.47;;;3.53;;
79670;SDS011;69137;50.878;8.050;2023-04-26T05:28:31;7.78;;;3.70;;
79670;SDS011;69137;50.878;8.050;2023-04-26T05:30:57;8.15;;;4.03;;
79670;SDS011;69137;50.878;8.050;2023-04-26T05:33:23;6.32;;;4.03;;
79670;SDS011;69137;50.878;8.050;2023-04-26T05:35:49;8.93;;;4.25;;
79670;SDS011;69137;50.878;8.050;2023-04-26T05:38:14;10.70;;;4.20;;
79670;SDS011;69137;50.878;8.050;2023-04-26T05:40:40;8.43;;;4.38;;
79670;SDS011;69137;50.878;8.050;2023-04-26T05:43:06;8.40;;;3.75;;
79670;SDS011;69137;50.878;8.050;2023-04-26T05:45:31;6.22;;;3.70;;
79670;SDS011;69137;50.878;8.050;2023-04-26T05:47:57;7.68;;;3.63;;
79670;SDS011;69137;50.878;8.050;2023-04-26T05:50:22;10.57;;;3.72;;
79670;SDS011;69137;50.878;8.050;2023-04-26T05:52:47;7.55;;;3.97;;
79670;SDS011;69137;50.878;8.050;2023-04-26T05:55:13;7.38;;;3.58;;
79670;SDS011;69137;50.878;8.050;2023-04-26T05:57:38;7.82;;;3.38;;
79670;SDS011;69137;50.878;8.050;2023-04-26T06:00:04;7.00;;;3.40;;
79670;SDS011;69137;50.878;8.050;2023-04-26T06:02:30;7.28;;;3.83;;
79670;SDS011;69137;50.878;8.050;2023-04-26T06:04:56;8.55;;;4.10;;
79670;SDS011;69137;50.878;8.050;2023-04-26T06:07:21;7.57;;;3.30;;
79670;SDS011;69137;50.878;8.050;2023-04-26T06:09:47;9.00;;;3.50;;
79670;SDS011;69137;50.878;8.050;2023-04-26T06:12:12;14.05;;;3.33;;
79670;SDS011;69137;50.878;8.050;2023-04-26T06:14:38;7.03;;;3.45;;
79670;SDS011;69137;50.878;8.050;2023-04-26T06:17:03;6.07;;;3.75;;
79670;SDS011;69137;50.878;8.050;2023-04-26T06:19:29;11.63;;;4.03;;
79670;SDS011;69137;50.878;8.050;2023-04-26T06:21:54;7.68;;;3.55;;
79670;SDS011;69137;50.878;8.050;2023-04-26T06:24:21;8.07;;;3.67;;
79670;SDS011;69137;50.878;8.050;2023-04-26T06:26:49;6.05;;;2.75;;
79670;SDS011;69137;50.878;8.050;2023-04-26T06:29:15;11.07;;;3.38;;
79670;SDS011;69137;50.878;8.050;2023-04-26T06:31:41;5.07;;;3.53;;
79670;SDS011;69137;50.878;8.050;2023-04-26T06:34:06;7.88;;;3.50;;
79670;SDS011;69137;50.878;8.050;2023-04-26T06:36:31;4.35;;;3.22;;
79670;SDS011;69137;50.878;8.050;2023-04-26T06:38:57;9.45;;;4.50;;
79670;SDS011;69137;50.878;8.050;2023-04-26T06:41:22;10.10;;;4.07;;
79670;SDS011;69137;50.878;8.050;2023-04-26T06:43:48;8.30;;;4.30;;
79670;SDS011;69137;50.878;8.050;2023-04-26T06:46:13;12.10;;;4.03;;
79670;SDS011;69137;50.878;8.050;2023-04-26T06:48:39;12.25;;;5.22;;
79670;SDS011;69137;50.878;8.050;2023-04-26T06:51:07;13.20;;;3.85;;
79670;SDS011;69137;50.878;8.050;2023-04-26T06:55:58;8.15;;;3.80;;
79670;SDS011;69137;50.878;8.050;2023-04-26T06:58:24;8.05;;;4.45;;
79670;SDS011;69137;50.878;8.050;2023-04-26T07:00:49;14.57;;;4.60;;
79670;SDS011;69137;50.878;8.050;2023-04-26T07:03:15;10.95;;;4.80;;
79670;SDS011;69137;50.878;8.050;2023-04-26T07:05:40;10.05;;;4.38;;
79670;SDS011;69137;50.878;8.050;2023-04-26T07:08:06;11.27;;;4.65;;
79670;SDS011;69137;50.878;8.050;2023-04-26T07:10:31;16.65;;;5.30;;
79670;SDS011;69137;50.878;8.050;2023-04-26T07:12:57;13.30;;;4.45;;
79670;SDS011;69137;50.878;8.050;2023-04-26T07:15:22;9.98;;;4.50;;
79670;SDS011;69137;50.878;8.050;2023-04-26T07:17:48;10.85;;;5.13;;
79670;SDS011;69137;50.878;8.050;2023-04-26T07:20:13;9.82;;;4.45;;
79670;SDS011;69137;50.878;8.050;2023-04-26T07:22:43;12.02;;;4.82;;
79670;SDS011;69137;50.878;8.050;2023-04-26T07:25:09;11.15;;;4.75;;
79670;SDS011;69137;50.878;8.050;2023-04-26T07:27:35;12.00;;;4.40;;
79670;SDS011;69137;50.878;8.050;2023-04-26T07:30:00;15.15;;;4.68;;
79670;SDS011;69137;50.878;8.050;2023-04-26T07:32:26;15.25;;;4.72;;
79670;SDS011;69137;50.878;8.050;2023-04-26T07:34:54;9.52;;;3.78;;
79670;SDS011;69137;50.878;8.050;2023-04-26T07:37:20;8.75;;;4.05;;
79670;SDS011;69137;50.878;8.050;2023-04-26T07:39:45;12.18;;;4.45;;
79670;SDS011;69137;50.878;8.050;2023-04-26T07:42:10;9.57;;;4.75;;
79670;SDS011;69137;50.878;8.050;2023-04-26T07:44:37;9.90;;;3.95;;
79670;SDS011;69137;50.878;8.050;2023-04-26T07:47:02;7.53;;;3.85;;
79670;SDS011;69137;50.878;8.050;2023-04-26T07:49:28;11.32;;;5.20;;
79670;SDS011;69137;50.878;8.050;2023-04-26T07:51:53;11.18;;;4.88;;
79670;SDS011;69137;50.878;8.050;2023-04-26T07:54:20;9.90;;;4.00;;
79670;SDS011;69137;50.878;8.050;2023-04-26T07:56:45;11.98;;;4.32;;
79670;SDS011;69137;50.878;8.050;2023-04-26T07:59:11;12.75;;;4.68;;
79670;SDS011;69137;50.878;8.050;2023-04-26T08:01:36;7.57;;;3.75;;
79670;SDS011;69137;50.878;8.050;2023-04-26T08:04:02;13.23;;;3.95;;
79670;SDS011;69137;50.878;8.050;2023-04-26T08:06:29;7.72;;;4.13;;
79670;SDS011;69137;50.878;8.050;2023-04-26T08:08:55;8.00;;;3.50;;
79670;SDS011;69137;50.878;8.050;2023-04-26T08:11:20;11.98;;;3.58;;
79670;SDS011;69137;50.878;8.050;2023-04-26T08:13:46;10.98;;;4.72;;
79670;SDS011;69137;50.878;8.050;2023-04-26T08:16:12;5.40;;;3.30;;
79670;SDS011;69137;50.878;8.050;2023-04-26T08:18:37;10.77;;;3.40;;
79670;SDS011;69137;50.878;8.050;2023-04-26T08:21:03;5.40;;;3.10;;
79670;SDS011;69137;50.878;8.050;2023-04-26T08:23:31;7.63;;;2.97;;
79670;SDS011;69137;50.878;8.050;2023-04-26T08:25:58;4.72;;;2.80;;
79670;SDS011;69137;50.878;8.050;2023-04-26T08:28:24;8.82;;;2.88;;
79670;SDS011;69137;50.878;8.050;2023-04-26T08:30:49;6.07;;;2.65;;
79670;SDS011;69137;50.878;8.050;2023-04-26T08:33:16;9.45;;;2.90;;
79670;SDS011;69137;50.878;8.050;2023-04-26T08:35:43;5.25;;;2.35;;
79670;SDS011;69137;50.878;8.050;2023-04-26T08:38:08;6.93;;;2.45;;
79670;SDS011;69137;50.878;8.050;2023-04-26T08:40:34;5.13;;;2.28;;
79670;SDS011;69137;50.878;8.050;2023-04-26T08:43:00;7.80;;;2.97;;
79670;SDS011;69137;50.878;8.050;2023-04-26T08:45:26;3.72;;;2.03;;
79670;SDS011;69137;50.878;8.050;2023-04-26T08:48:08;4.68;;;2.80;;
79670;SDS011;69137;50.878;8.050;2023-04-26T08:50:38;4.45;;;2.13;;
79670;SDS011;69137;50.878;8.050;2023-04-26T08:53:05;13.18;;;2.50;;
79670;SDS011;69137;50.878;8.050;2023-04-26T08:55:32;4.93;;;2.03;;
79670;SDS011;69137;50.878;8.050;2023-04-26T08:57:59;6.68;;;2.63;;
79670;SDS011;69137;50.878;8.050;2023-04-26T09:00:26;8.07;;;3.15;;
79670;SDS011;69137;50.878;8.050;2023-04-26T09:02:51;8.70;;;2.75;;
79670;SDS011;69137;50.878;8.050;2023-04-26T09:05:20;8.30;;;2.92;;
79670;SDS011;69137;50.878;8.050;2023-04-26T09:07:48;7.57;;;2.88;;
79670;SDS011;69137;50.878;8.050;2023-04-26T09:10:18;7.32;;;2.47;;
79670;SDS011;69137;50.878;8.050;2023-04-26T09:12:45;7.97;;;2.95;;
79670;SDS011;69137;50.878;8.050;2023-04-26T09:15:12;3.95;;;2.28;;
79670;SDS011;69137;50.878;8.050;2023-04-26T09:17:39;4.72;;;1.98;;
79670;SDS011;69137;50.878;8.050;2023-04-26T09:22:53;7.82;;;2.42;;
79670;SDS011;69137;50.878;8.050;2023-04-26T09:25:30;2.88;;;1.90;;
79670;SDS011;69137;50.878;8.050;2023-04-26T09:27:56;6.07;;;1.98;;
79670;SDS011;69137;50.878;8.050;2023-04-26T09:30:23;7.00;;;1.95;;
79670;SDS011;69137;50.878;8.050;2023-04-26T09:32:50;3.88;;;1.95;;
79670;SDS011;69137;50.878;8.050;2023-04-26T09:35:39;6.45;;;2.10;;
79670;SDS011;69137;50.878;8.050;2023-04-26T09:38:07;6.80;;;2.95;;
79670;SDS011;69137;50.878;8.050;2023-04-26T09:40:34;3.25;;;2.20;;
79670;SDS011;69137;50.878;8.050;2023-04-26T09:43:05;4.88;;;2.00;;
79670;SDS011;69137;50.878;8.050;2023-04-26T09:45:33;8.85;;;2.72;;
79670;SDS011;69137;50.878;8.050;2023-04-26T09:48:20;5.32;;;2.20;;
79670;SDS011;69137;50.878;8.050;2023-04-26T09:50:47;4.80;;;2.58;;
79670;SDS011;69137;50.878;8.050;2023-04-26T09:53:30;6.32;;;2.38;;
79670;SDS011;69137;50.878;8.050;2023-04-26T09:56:07;3.65;;;2.25;;
79670;SDS011;69137;50.878;8.050;2023-04-26T09:58:38;4.20;;;1.92;;
79670;SDS011;69137;50.878;8.050;2023-04-26T10:01:22;4.65;;;2.08;;
79670;SDS011;69137;50.878;8.050;2023-04-26T10:03:48;4.10;;;2.15;;
79670;SDS011;69137;50.878;8.050;2023-04-26T10:06:17;7.88;;;2.30;;
79670;SDS011;69137;50.878;8.050;2023-04-26T10:08:43;6.07;;;2.35;;
79670;SDS011;69137;50.878;8.050;2023-04-26T10:11:09;4.22;;;2.33;;
79670;SDS011;69137;50.878;8.050;2023-04-26T10:13:35;5.60;;;2.10;;
79670;SDS011;69137;50.878;8.050;2023-04-26T10:16:01;5.15;;;2.53;;
79670;SDS011;69137;50.878;8.050;2023-04-26T10:18:28;5.20;;;2.15;;
79670;SDS011;69137;50.878;8.050;2023-04-26T10:20:56;7.68;;;2.63;;
79670;SDS011;69137;50.878;8.050;2023-04-26T10:23:24;5.28;;;3.08;;
79670;SDS011;69137;50.878;8.050;2023-04-26T10:25:51;5.35;;;2.30;;
79670;SDS011;69137;50.878;8.050;2023-04-26T10:28:18;8.23;;;2.53;;
79670;SDS011;69137;50.878;8.050;2023-04-26T10:31:08;5.25;;;2.55;;
79670;SDS011;69137;50.878;8.050;2023-04-26T10:33:34;5.95;;;2.55;;
79670;SDS011;69137;50.878;8.050;2023-04-26T10:36:07;6.18;;;2.40;;
79670;SDS011;69137;50.878;8.050;2023-04-26T10:38:39;4.22;;;2.40;;
79670;SDS011;69137;50.878;8.050;2023-04-26T10:44:46;7.75;;;2.80;;
79670;SDS011;69137;50.878;8.050;2023-04-26T10:47:02;6.65;;;2.28;;
79670;SDS011;69137;50.878;8.050;2023-04-26T10:49:29;6.80;;;2.60;;
79670;SDS011;69137;50.878;8.050;2023-04-26T10:52:10;2.70;;;1.98;;
79670;SDS011;69137;50.878;8.050;2023-04-26T10:57:17;6.72;;;2.13;;
79670;SDS011;69137;50.878;8.050;2023-04-26T11:02:43;7.70;;;2.53;;
79670;SDS011;69137;50.878;8.050;2023-04-26T11:05:32;3.30;;;2.15;;
79670;SDS011;69137;50.878;8.050;2023-04-26T11:10:29;17.20;;;3.85;;
79670;SDS011;69137;50.878;8.050;2023-04-26T11:13:01;4.53;;;2.28;;
79670;SDS011;69137;50.878;8.050;2023-04-26T11:15:28;5.47;;;2.60;;
79670;SDS011;69137;50.878;8.050;2023-04-26T11:17:55;6.28;;;2.33;;
79670;SDS011;69137;50.878;8.050;2023-04-26T11:20:20;4.25;;;1.98;;
79670;SDS011;69137;50.878;8.050;2023-04-26T11:22:46;9.25;;;2.38;;
79670;SDS011;69137;50.878;8.050;2023-04-26T11:25:11;4.07;;;2.30;;
79670;SDS011;69137;50.878;8.050;2023-04-26T11:27:38;4.38;;;2.20;;
79670;SDS011;69137;50.878;8.050;2023-04-26T11:30:03;3.10;;;2.03;;
79670;SDS011;69137;50.878;8.050;2023-04-26T11:32:29;3.58;;;2.17;;
79670;SDS011;69137;50.878;8.050;2023-04-26T11:34:54;8.25;;;2.40;;
79670;SDS011;69137;50.878;8.050;2023-04-26T11:37:24;3.40;;;2.15;;
79670;SDS011;69137;50.878;8.050;2023-04-26T11:39:50;2.65;;;1.67;;
79670;SDS011;69137;50.878;8.050;2023-04-26T11:42:15;3.78;;;1.83;;
79670;SDS011;69137;50.878;8.050;2023-04-26T11:44:41;6.30;;;2.08;;
79670;SDS011;69137;50.878;8.050;2023-04-26T11:47:06;4.97;;;2.42;;
79670;SDS011;69137;50.878;8.050;2023-04-26T11:49:34;5.80;;;2.17;;
79670;SDS011;69137;50.878;8.050;2023-04-26T11:52:01;8.90;;;2.35;;
79670;SDS011;69137;50.878;8.050;2023-04-26T11:54:34;6.90;;;2.10;;
79670;SDS011;69137;50.878;8.050;2023-04-26T11:57:00;4.95;;;2.70;;
79670;SDS011;69137;50.878;8.050;2023-04-26T11:59:37;6.18;;;2.45;;
79670;SDS011;69137;50.878;8.050;2023-04-26T12:02:05;5.53;;;2.22;;
79670;SDS011;69137;50.878;8.050;2023-04-26T12:04:32;5.22;;;2.08;;
79670;SDS011;69137;50.878;8.050;2023-04-26T12:06:57;4.07;;;2.20;;
79670;SDS011;69137;50.878;8.050;2023-04-26T12:09:23;4.25;;;2.33;;
79670;SDS011;69137;50.878;8.050;2023-04-26T12:11:59;5.38;;;2.35;;
79670;SDS011;69137;50.878;8.050;2023-04-26T12:17:01;5.10;;;2.95;;
79670;SDS011;69137;50.878;8.050;2023-04-26T12:19:38;7.38;;;2.42;;
79670;SDS011;69137;50.878;8.050;2023-04-26T12:22:04;5.60;;;2.20;;
79670;SDS011;69137;50.878;8.050;2023-04-26T12:24:31;7.47;;;2.63;;
79670;SDS011;69137;50.878;8.050;2023-04-26T12:26:59;6.18;;;2.33;;
79670;SDS011;69137;50.878;8.050;2023-04-26T12:29:26;2.55;;;1.80;;
79670;SDS011;69137;50.878;8.050;2023-04-26T12:31:54;5.57;;;2.03;;
79670;SDS011;69137;50.878;8.050;2023-04-26T12:34:20;3.10;;;1.83;;
79670;SDS011;69137;50.878;8.050;2023-04-26T12:36:46;3.55;;;2.45;;
79670;SDS011;69137;50.878;8.050;2023-04-26T12:39:11;3.58;;;2.35;;
79670;SDS011;69137;50.878;8.050;2023-04-26T12:41:38;5.05;;;2.03;;
79670;SDS011;69137;50.878;8.050;2023-04-26T12:44:05;4.03;;;2.42;;
79670;SDS011;69137;50.878;8.050;2023-04-26T12:46:32;6.05;;;2.50;;
79670;SDS011;69137;50.878;8.050;2023-04-26T12:48:57;5.10;;;2.80;;
79670;SDS011;69137;50.878;8.050;2023-04-26T12:51:23;10.25;;;2.75;;
79670;SDS011;69137;50.878;8.050;2023-04-26T12:53:48;7.55;;;2.50;;
79670;SDS011;69137;50.878;8.050;2023-04-26T12:56:14;5.72;;;2.33;;
79670;SDS011;69137;50.878;8.050;2023-04-26T12:58:40;5.68;;;2.25;;
79670;SDS011;69137;50.878;8.050;2023-04-26T13:01:06;5.97;;;2.70;;
79670;SDS011;69137;50.878;8.050;2023-04-26T13:03:31;6.45;;;2.30;;
79670;SDS011;69137;50.878;8.050;2023-04-26T13:05:57;7.53;;;2.92;;
79670;SDS011;69137;50.878;8.050;2023-04-26T13:08:22;4.03;;;2.50;;
79670;SDS011;69137;50.878;8.050;2023-04-26T13:10:48;8.95;;;2.63;;
79670;SDS011;69137;50.878;8.050;2023-04-26T13:13:14;4.60;;;2.17;;
79670;SDS011;69137;50.878;8.050;2023-04-26T13:15:40;5.18;;;2.70;;
79670;SDS011;69137;50.878;8.050;2023-04-26T13:18:05;4.20;;;2.35;;
79670;SDS011;69137;50.878;8.050;2023-04-26T13:20:30;5.13;;;2.28;;
79670;SDS011;69137;50.878;8.050;2023-04-26T13:22:56;3.55;;;2.10;;
79670;SDS011;69137;50.878;8.050;2023-04-26T13:25:21;4.90;;;2.70;;
79670;SDS011;69137;50.878;8.050;2023-04-26T13:27:47;4.47;;;2.22;;
79670;SDS011;69137;50.878;8.050;2023-04-26T13:30:13;3.83;;;2.60;;
79670;SDS011;69137;50.878;8.050;2023-04-26T13:32:39;7.35;;;2.20;;
79670;SDS011;69137;50.878;8.050;2023-04-26T13:35:07;4.95;;;2.45;;
79670;SDS011;69137;50.878;8.050;2023-04-26T13:37:32;12.35;;;2.75;;
79670;SDS011;69137;50.878;8.050;2023-04-26T13:39:58;3.33;;;2.20;;
79670;SDS011;69137;50.878;8.050;2023-04-26T13:42:24;4.65;;;2.50;;
79670;SDS011;69137;50.878;8.050;2023-04-26T13:44:49;6.30;;;2.47;;
79670;SDS011;69137;50.878;8.050;2023-04-26T13:47:15;4.25;;;2.40;;
79670;SDS011;69137;50.878;8.050;2023-04-26T13:49:41;4.43;;;1.98;;
79670;SDS011;69137;50.878;8.050;2023-04-26T13:52:08;7.18;;;2.72;;
79670;SDS011;69137;50.878;8.050;2023-04-26T13:54:35;4.13;;;2.63;;
79670;SDS011;69137;50.878;8.050;2023-04-26T13:57:01;7.95;;;2.63;;
79670;SDS011;69137;50.878;8.050;2023-04-26T13:59:27;6.88;;;2.00;;
79670;SDS011;69137;50.878;8.050;2023-04-26T14:01:53;5.93;;;2.47;;
79670;SDS011;69137;50.878;8.050;2023-04-26T14:04:20;6.30;;;2.08;;
79670;SDS011;69137;50.878;8.050;2023-04-26T14:06:46;5.82;;;2.88;;
79670;SDS011;69137;50.878;8.050;2023-04-26T14:09:11;7.72;;;2.55;;
79670;SDS011;69137;50.878;8.050;2023-04-26T14:11:37;5.18;;;2.58;;
79670;SDS011;69137;50.878;8.050;2023-04-26T14:14:02;5.95;;;2.53;;
79670;SDS011;69137;50.878;8.050;2023-04-26T14:16:28;5.50;;;2.47;;
79670;SDS011;69137;50.878;8.050;2023-04-26T14:18:53;6.25;;;2.60;;
79670;SDS011;69137;50.878;8.050;2023-04-26T14:21:19;3.75;;;2.25;;
79670;SDS011;69137;50.878;8.050;2023-04-26T14:23:44;9.55;;;2.63;;
79670;SDS011;69137;50.878;8.050;2023-04-26T14:26:10;6.05;;;2.90;;
79670;SDS011;69137;50.878;8.050;2023-04-26T14:28:36;5.80;;;2.40;;
79670;SDS011;69137;50.878;8.050;2023-04-26T14:31:02;7.38;;;2.30;;
79670;SDS011;69137;50.878;8.050;2023-04-26T14:33:27;6.20;;;2.28;;
79670;SDS011;69137;50.878;8.050;2023-04-26T14:35:53;2.85;;;2.08;;
79670;SDS011;69137;50.878;8.050;2023-04-26T14:38:19;5.72;;;2.40;;
79670;SDS011;69137;50.878;8.050;2023-04-26T14:40:45;5.55;;;2.42;;
79670;SDS011;69137;50.878;8.050;2023-04-26T14:43:10;7.00;;;2.92;;
79670;SDS011;69137;50.878;8.050;2023-04-26T14:45:36;4.72;;;2.50;;
79670;SDS011;69137;50.878;8.050;2023-04-26T14:48:01;4.72;;;2.72;;
79670;SDS011;69137;50.878;8.050;2023-04-26T14:50:27;6.63;;;2.97;;
79670;SDS011;69137;50.878;8.050;2023-04-26T14:52:53;6.28;;;2.17;;
79670;SDS011;69137;50.878;8.050;2023-04-26T14:55:19;5.63;;;2.58;;
79670;SDS011;69137;50.878;8.050;2023-04-26T14:57:48;5.47;;;2.40;;
79670;SDS011;69137;50.878;8.050;2023-04-26T15:00:14;7.13;;;2.55;;
79670;SDS011;69137;50.878;8.050;2023-04-26T15:02:44;5.10;;;2.28;;
79670;SDS011;69137;50.878;8.050;2023-04-26T15:05:10;6.38;;;2.47;;